Líbí se Vám tento web? Budeme velmi rádi, pokud přidáte hodnocení +1

Seznam meteostanic a jejich METAR

Vyhledat místa podle abecedy:
A B C D E F G H I J K L M N O P Q R S T U V W X Y Z

Filtrovat:

ID stanice:
a/nebo
Název místa (fulltext):
 
Místo (ID)Naposledy načteno 
Brno - Tuřany (Brno/Tu) 25.07.2017 12:00 UTC Zobrazit data
Místo: Brno - Tuřany
Teplota: 20 °C (pocitová: 18.6 °C)
Vítr: 6 m/s z(e) 290°
Počasí: skoro zataženo
Dohlednost: 50 km
Zákl. oblačnosti: 1/8 1320 m;6/8 1800 m
Vlhkost: 49%
Červená - Opava (Cervena/uL) 25.07.2017 12:00 UTC Zobrazit data
Místo: Červená - Opava
Teplota: 15 °C (pocitová: 11.2 °C)
Vítr: 7 m/s z(e) 260°
Počasí: skoro zataženo
Dohlednost: 60 km
Zákl. oblačnosti: 4/8 510 m;3/8 5700 m
Vlhkost: 68%
České Budějovice (C.Budej/po) 25.07.2017 12:00 UTC Zobrazit data
Místo: České Budějovice
Teplota: 20 °C (pocitová: 18.4 °C)
Vítr: 7 m/s z(e) 260°
Počasí: zataženo
Dohlednost: 35 km
Zákl. oblačnosti: 3/8 2100 m;7/8 2400 m
Vlhkost: 53%
Cheb (Cheb) 25.07.2017 12:00 UTC Zobrazit data
Místo: Cheb
Teplota: 13 °C (pocitová: 9 °C)
Vítr: 5 m/s z(e) 250°
Počasí: zataženo
Dohlednost: 35 km
Zákl. oblačnosti: 3/8 720 m;5/8 1050 m
Vlhkost: 82%
Chotusice - Čáslav (Caslav) 25.07.2017 12:00 UTC Zobrazit data
Místo: Chotusice - Čáslav
Teplota: 19 °C (pocitová: 17 °C)
Vítr: 7 m/s z(e) 250°
Počasí: skoro zataženo
Dohlednost: 20 km
Zákl. oblačnosti: 2/8 1050 m;5/8 1800 m
Vlhkost: 60%
Churáňov (Churanov) 25.07.2017 12:00 UTC Zobrazit data
Místo: Churáňov
Teplota: 11 °C (pocitová: 6.2 °C)
Vítr: 5 m/s z(e) 250°
Počasí: oblačno
Dohlednost: 35 km
Zákl. oblačnosti: 2/8 360 m;3/8 720 m
Vlhkost: 82%
Doksany - Litoměřice (Doksany) 25.07.2017 12:00 UTC Zobrazit data
Místo: Doksany - Litoměřice
Teplota: 20 °C (pocitová: 18.4 °C)
Vítr: 7 m/s z(e) 250°
Počasí: skoro zataženo
Dohlednost: 50 km
Zákl. oblačnosti: 1/8 1260 m;5/8 1500 m
Vlhkost: 53%
Dukovany (Dukovany) 25.07.2017 12:00 UTC Zobrazit data
Místo: Dukovany
Teplota: 20 °C (pocitová: 17.9 °C)
Vítr: 11 m/s z(e) 280°
Počasí: skoro zataženo
Dohlednost: 35 km
Zákl. oblačnosti: 4/8 1290 m;7/8 6000 m
Vlhkost: 46%
Holešov (Holesov) 25.07.2017 12:00 UTC Zobrazit data
Místo: Holešov
Teplota: 19 °C (pocitová: 17.4 °C)
Vítr: 5 m/s z(e) 280°
Počasí: skoro zataženo
Dohlednost: 70 km
Zákl. oblačnosti: 3/8 1290 m;7/8 1800 m
Vlhkost: 52%
Kadaň - Tušimice (Tusimice) 25.07.2017 12:00 UTC Zobrazit data
Místo: Kadaň - Tušimice
Teplota: 19 °C (pocitová: 17 °C)
Vítr: 7 m/s z(e) 250°
Počasí: oblačno
Dohlednost: 40 km
Zákl. oblačnosti: 4/8 960 m
Vlhkost: 56%
Karlovy Vary (K.Vary) 25.07.2017 12:00 UTC Zobrazit data
Místo: Karlovy Vary
Teplota: 14 °C (pocitová: 9.8 °C)
Vítr: 7 m/s z(e) 250°
Počasí: skoro zataženo
Dohlednost: 40 km
Zákl. oblačnosti: 3/8 600 m;4/8 1140 m
Vlhkost: 72%
Kocelovice (Kocelovice) 25.07.2017 12:00 UTC Zobrazit data
Místo: Kocelovice
Teplota: 16 °C (pocitová: 12.9 °C)
Vítr: 6 m/s z(e) 260°
Počasí: skoro zataženo
Dohlednost: 25 km
Zákl. oblačnosti: 4/8 780 m;7/8 1290 m
Vlhkost: 63%
Kopisty (Kopisty) 25.07.2017 12:00 UTC Zobrazit data
Místo: Kopisty
Teplota: 19 °C (pocitová: 17.4 °C)
Vítr: 5 m/s z(e) 240°
Počasí: skoro zataženo
Dohlednost: 35 km
Zákl. oblačnosti: 3/8 1200 m
Vlhkost: 60%
Kostelní Myslová (K.Myslova) 25.07.2017 12:00 UTC Zobrazit data
Místo: Kostelní Myslová
Teplota: 18 °C (pocitová: 16 °C)
Vítr: 5 m/s z(e) 280°
Počasí: skoro zataženo
Dohlednost: 40 km
Zákl. oblačnosti: 4/8 1140 m;7/8 6600 m
Vlhkost: 56%
Křešín - Kramolín (Kramolin) 25.07.2017 12:00 UTC Zobrazit data
Místo: Křešín - Kramolín
Teplota: 15 °C (pocitová: 11.8 °C)
Vítr: 5 m/s z(e) 250°
Počasí: skoro zataženo
Dohlednost: 25 km
Zákl. oblačnosti: 1/8 1020 m;7/8 1500 m
Vlhkost: 68%
Kuchařovice - Znojmo (Kucharovic) 25.07.2017 12:00 UTC Zobrazit data
Místo: Kuchařovice - Znojmo
Teplota: 20 °C (pocitová: 18.2 °C)
Vítr: 8 m/s z(e) 280°
Počasí: skoro zataženo
Dohlednost: 70 km
Zákl. oblačnosti: 2/8 1410 m;7/8 7500 m
Vlhkost: 49%
Liberec (Liberec) 25.07.2017 12:00 UTC Zobrazit data
Místo: Liberec
Teplota: 16 °C (pocitová: 13.5 °C)
Vítr: 4 m/s z(e) 210°
Počasí: skoro zataženo
Dohlednost: 45 km
Zákl. oblačnosti: 5/8 630 m;5/8 1200 m
Vlhkost: 68%
Luká (Luka) 25.07.2017 12:00 UTC Zobrazit data
Místo: Luká
Teplota: 17 °C (pocitová: 14.1 °C)
Vítr: 7 m/s z(e) 270°
Počasí: skoro zataženo
Dohlednost: 40 km
Zákl. oblačnosti: 4/8 840 m;3/8 1500 m
Vlhkost: 56%
Lysá Hora (Lysa Hora) 24.07.2017 16:00 UTC Zobrazit data
Místo: Lysá Hora
Teplota: 14 °C (pocitová: 10.1 °C)
Vítr: 6 m/s z(e) 130°
Počasí: déšť
Dohlednost: 11 km
Zákl. oblačnosti: 8/8 390 m
Vlhkost: 94%
Milešovka (Milesovka) 25.07.2017 11:00 UTC Zobrazit data
Místo: Milešovka
Teplota: 12 °C (pocitová: 7.3 °C)
Vítr: 6 m/s z(e) 250°
Počasí: zataženo
Dohlednost: 60 km
Zákl. oblačnosti: 8/8 390 m
Vlhkost: 88%
Mošnov (Ostrava/Mo) 25.07.2017 12:00 UTC Zobrazit data
Místo: Mošnov
Teplota: 19 °C (pocitová: 17 °C)
Vítr: 7 m/s z(e) 250°
Počasí: skoro zataženo
Dohlednost: 25 km
Zákl. oblačnosti: 5/8 1080 m;7/8 2400 m
Vlhkost: 60%
Náměšť nad Oslavou (Namest n/O) 25.07.2017 12:00 UTC Zobrazit data
Místo: Náměšť nad Oslavou
Teplota: 19 °C (pocitová: 16.7 °C)
Vítr: 9 m/s z(e) 280°
Počasí: skoro zataženo
Dohlednost: 30 km
Zákl. oblačnosti: 3/8 1200 m;5/8 1500 m
Vlhkost: 46%
Pardubice (Pardubice) 25.07.2017 12:00 UTC Zobrazit data
Místo: Pardubice
Teplota: 19 °C (pocitová: 17 °C)
Vítr: 7 m/s z(e) 260°
Počasí: zataženo
Dohlednost: 20 km
Zákl. oblačnosti: 3/8 900 m;8/8 1500 m
Vlhkost: 56%
Pec pod Sněžkou (Pec p.Snez) 25.07.2017 12:00 UTC Zobrazit data
Místo: Pec pod Sněžkou
Teplota: 12 °C (pocitová: 7.3 °C)
Vítr: 6 m/s z(e) 200°
Počasí: skoro zataženo
Dohlednost: 20 km
Zákl. oblačnosti: 7/8 330 m
Vlhkost: 88%
Plzeň město - Mikulka (Plzen/Miku) 25.07.2017 12:00 UTC Zobrazit data
Místo: Plzeň město - Mikulka
Teplota: 16 °C (pocitová: 13.2 °C)
Vítr: 5 m/s z(e) 250°
Počasí: skoro zataženo
Dohlednost: 30 km
Zákl. oblačnosti: 3/8 840 m;4/8 2100 m
Vlhkost: 72%
Polom (Polom) 25.07.2017 12:00 UTC Zobrazit data
Místo: Polom
Teplota: 12 °C (pocitová: 8 °C)
Vítr: 4 m/s z(e) 250°
Počasí: skoro zataženo
Dohlednost: 15 km
Zákl. oblačnosti: 3/8 420 m;7/8 1440 m
Vlhkost: 100%
Praha - Karlov (Praha/Kar) 25.07.2017 12:00 UTC Zobrazit data
Místo: Praha - Karlov
Teplota: 18 °C (pocitová: 15.8 °C)
Vítr: 6 m/s z(e) 240°
Počasí: skoro zataženo
Dohlednost: 35 km
Zákl. oblačnosti: 1/8 1050 m;6/8 1800 m
Vlhkost: 60%
Praha - Kbely (Praha/Kbe) 25.07.2017 12:00 UTC Zobrazit data
Místo: Praha - Kbely
Teplota: 17 °C (pocitová: 14.3 °C)
Vítr: 6 m/s z(e) 240°
Počasí: skoro zataženo
Dohlednost: 30 km
Zákl. oblačnosti: 4/8 1050 m;7/8 1380 m
Vlhkost: 64%
Praha - Libuš (Praha/Lib) 25.07.2017 12:00 UTC Zobrazit data
Místo: Praha - Libuš
Teplota: 17 °C (pocitová: 14.9 °C)
Vítr: 4 m/s z(e) 250°
Počasí: skoro zataženo
Dohlednost: 45 km
Zákl. oblačnosti: 2/8 990 m;6/8 1500 m
Vlhkost: 64%
Praha - Ruzyně (Praha/Ru) 25.07.2017 12:00 UTC Zobrazit data
Místo: Praha - Ruzyně
Teplota: 18 °C (pocitová: 15.3 °C)
Vítr: 8 m/s z(e) 240°
Počasí: skoro zataženo
Dohlednost: 70 km
Zákl. oblačnosti: 3/8 1080 m;6/8 1500 m
Vlhkost: 60%
Přibyslav (Pribyslav) 25.07.2017 12:00 UTC Zobrazit data
Místo: Přibyslav
Teplota: 16 °C (pocitová: 12.7 °C)
Vítr: 7 m/s z(e) 270°
Počasí: skoro zataženo
Dohlednost: 50 km
Zákl. oblačnosti: 5/8 960 m
Vlhkost: 68%
Přimda (Primda) 25.07.2017 12:00 UTC Zobrazit data
Místo: Přimda
Teplota: 11 °C (pocitová: 5.5 °C)
Vítr: 7 m/s z(e) 270°
Počasí: déšť
Dohlednost: 18 km
Zákl. oblačnosti: 3/8 180 m;4/8 570 m
Vlhkost: 94%
Šerák (Serak) 24.07.2017 16:00 UTC Zobrazit data
Místo: Šerák
Teplota: 11 °C (pocitová: 6.7 °C)
Vítr: 4 m/s z(e) 110°
Počasí: zataženo
Dohlednost: 4000 m
Zákl. oblačnosti: 1/8 150 m;5/8 210 m
Vlhkost: 94%
Svratouch (Svratouch) 25.07.2017 12:00 UTC Zobrazit data
Místo: Svratouch
Teplota: 14 °C (pocitová: 10.1 °C)
Vítr: 6 m/s z(e) 270°
Počasí: skoro zataženo
Dohlednost: 40 km
Zákl. oblačnosti: 1/8 570 m;7/8 1350 m
Vlhkost: 72%
Temelín (Temelin) 25.07.2017 12:00 UTC Zobrazit data
Místo: Temelín
Teplota: 16 °C (pocitová: 12.9 °C)
Vítr: 6 m/s z(e) 260°
Počasí: zataženo
Dohlednost: 50 km
Zákl. oblačnosti: 8/8 990 m
Vlhkost: 59%
Ústí nad Labem - Kočkov (Usti n/L) 25.07.2017 12:00 UTC Zobrazit data
Místo: Ústí nad Labem - Kočkov
Teplota: 16 °C (pocitová: 13.5 °C)
Vítr: 4 m/s z(e) 230°
Počasí: skoro zataženo
Dohlednost: 75 km
Zákl. oblačnosti: 4/8 690 m;7/8 1500 m
Vlhkost: 72%
Ústí nad Orlicí (Usti n/O) 25.07.2017 12:00 UTC Zobrazit data
Místo: Ústí nad Orlicí
Teplota: 16 °C (pocitová: 13.5 °C)
Vítr: 4 m/s z(e) 280°
Počasí: skoro zataženo
Dohlednost: 35 km
Zákl. oblačnosti: 5/8 960 m;7/8 1800 m
Vlhkost: 72%
Aalborg (EKYT) 24.07.2017 10:50 UTC Zobrazit METAR
EKYT 241050Z 10007KT 9999 SCT012 SCT025 17/14 Q1012
Aarhus (EKAH) 24.07.2017 13:20 UTC Zobrazit METAR
EKAH 241320Z 02006KT 9999 FEW009 BKN015 17/15 Q1011
Abu Dhabi (OMAA) 25.07.2017 12:00 UTC Zobrazit METAR
OMAA 251200Z 29013KT CAVOK 45/14 Q0993 NOSIG
Abuja (DNAA) 25.07.2017 12:00 UTC Zobrazit METAR
DNAA 251200Z 26006KT 9999 BKN010 28/21 Q1016 NOSIG
Accra (DGAA) 24.07.2017 14:00 UTC Zobrazit METAR
DGAA 241400Z 22013KT 9999 FEW015 OVC021 25/23 Q1015 NOSIG
Addis Abeba (HAAB) 25.07.2017 12:00 UTC Zobrazit METAR
HAAB 251200Z 23009KT 9999 BKN025 19/13 Q1025
Agana (PGUM) 25.07.2017 11:54 UTC Zobrazit METAR
PGUM 251154Z 00000KT 10SM CLR 27/26 A2988 RMK AO2 SLP110 70001 T02720256 10306 20267 51016
Ahe Island (NTHE) Zatím nenačteno  
Akureyri (BIAR) 25.07.2017 12:00 UTC Zobrazit METAR
BIAR 251200Z 01009KT CAVOK 18/13 Q1014
Almaty (UAAA) Zatím nenačteno  
Amman (OJAM) 25.07.2017 12:00 UTC Zobrazit METAR
OJAM 251200Z 00000KT 5000 HZ NSC 37/11 Q1009 NOSIG
Amsterdam (EHAM) 25.07.2017 11:55 UTC Zobrazit METAR
EHAM 251155Z 32018KT 9999 SCT022 BKN040 19/14 Q1010 NOSIG
Antananarivo (FMMI) 25.07.2017 12:00 UTC Zobrazit METAR
FMMI 251200Z VRB01KT 9999 SCT020 BKN056 22/08 Q1019 NOSIG
1 2 3 ... 9 Další
Reklama

Počasí na Váš email

Emaily jsou bez reklamy a bez spamu



Odhlásit newsletter

Reklama


Lunární kalendář

  • 30.07.
  • 07.08.
  • 15.08.
  • 21.08.



Jsme na Google Plus

Reklama
Povinné ručení



Může Vás také zajímat:


Reklama